sensor_id;sensor_type;location;lat;lon;timestamp;P1;durP1;ratioP1;P2;durP2;ratioP2
75426;SDS011;64007;50.632;13.700;2024-03-23T00:53:47;10.50;;;4.32;;
75426;SDS011;64007;50.632;13.700;2024-03-23T00:56:12;10.23;;;4.20;;
75426;SDS011;64007;50.632;13.700;2024-03-23T00:58:38;12.30;;;4.32;;
75426;SDS011;64007;50.632;13.700;2024-03-23T01:01:04;6.15;;;3.95;;
75426;SDS011;64007;50.632;13.700;2024-03-23T01:03:30;8.77;;;4.07;;
75426;SDS011;64007;50.632;13.700;2024-03-23T01:06:02;8.15;;;3.92;;
75426;SDS011;64007;50.632;13.700;2024-03-23T01:08:29;5.65;;;3.58;;
75426;SDS011;64007;50.632;13.700;2024-03-23T01:10:58;8.60;;;3.80;;
75426;SDS011;64007;50.632;13.700;2024-03-23T01:13:27;7.65;;;3.75;;
75426;SDS011;64007;50.632;13.700;2024-03-23T01:15:54;9.63;;;3.85;;
75426;SDS011;64007;50.632;13.700;2024-03-23T01:18:21;8.30;;;3.55;;
75426;SDS011;64007;50.632;13.700;2024-03-23T01:20:48;13.27;;;3.63;;
75426;SDS011;64007;50.632;13.700;2024-03-23T01:23:14;8.38;;;3.13;;
75426;SDS011;64007;50.632;13.700;2024-03-23T01:25:40;9.30;;;3.78;;
75426;SDS011;64007;50.632;13.700;2024-03-23T01:28:06;6.35;;;3.15;;
75426;SDS011;64007;50.632;13.700;2024-03-23T01:30:33;8.40;;;3.55;;
75426;SDS011;64007;50.632;13.700;2024-03-23T01:32:59;7.22;;;3.42;;
75426;SDS011;64007;50.632;13.700;2024-03-23T01:35:25;5.85;;;2.92;;
75426;SDS011;64007;50.632;13.700;2024-03-23T01:37:51;10.95;;;3.28;;
75426;SDS011;64007;50.632;13.700;2024-03-23T01:40:16;7.30;;;3.15;;
75426;SDS011;64007;50.632;13.700;2024-03-23T01:42:42;6.40;;;3.10;;
75426;SDS011;64007;50.632;13.700;2024-03-23T01:45:08;6.15;;;3.40;;
75426;SDS011;64007;50.632;13.700;2024-03-23T01:47:37;9.10;;;3.03;;
75426;SDS011;64007;50.632;13.700;2024-03-23T01:50:03;7.43;;;3.17;;
75426;SDS011;64007;50.632;13.700;2024-03-23T01:52:30;6.20;;;2.95;;
75426;SDS011;64007;50.632;13.700;2024-03-23T01:54:56;7.82;;;3.35;;
75426;SDS011;64007;50.632;13.700;2024-03-23T01:57:21;7.03;;;3.40;;
75426;SDS011;64007;50.632;13.700;2024-03-23T01:59:47;11.65;;;4.07;;
75426;SDS011;64007;50.632;13.700;2024-03-23T02:02:14;7.03;;;3.08;;
75426;SDS011;64007;50.632;13.700;2024-03-23T02:04:40;7.07;;;3.33;;
75426;SDS011;64007;50.632;13.700;2024-03-23T02:07:06;6.00;;;3.42;;
75426;SDS011;64007;50.632;13.700;2024-03-23T02:09:32;8.93;;;4.20;;
75426;SDS011;64007;50.632;13.700;2024-03-23T02:11:58;7.65;;;3.33;;
75426;SDS011;64007;50.632;13.700;2024-03-23T02:14:24;5.68;;;3.55;;
75426;SDS011;64007;50.632;13.700;2024-03-23T02:16:50;9.05;;;3.50;;
75426;SDS011;64007;50.632;13.700;2024-03-23T02:19:15;9.30;;;3.78;;
75426;SDS011;64007;50.632;13.700;2024-03-23T02:21:41;7.28;;;3.40;;
75426;SDS011;64007;50.632;13.700;2024-03-23T02:24:07;5.70;;;3.35;;
75426;SDS011;64007;50.632;13.700;2024-03-23T02:26:32;6.97;;;3.40;;
75426;SDS011;64007;50.632;13.700;2024-03-23T02:28:58;8.05;;;3.30;;
75426;SDS011;64007;50.632;13.700;2024-03-23T02:31:24;6.72;;;3.60;;
75426;SDS011;64007;50.632;13.700;2024-03-23T02:33:49;8.65;;;4.30;;
75426;SDS011;64007;50.632;13.700;2024-03-23T02:36:15;10.23;;;3.88;;
75426;SDS011;64007;50.632;13.700;2024-03-23T02:38:41;11.07;;;4.40;;
75426;SDS011;64007;50.632;13.700;2024-03-23T02:41:06;5.47;;;3.20;;
75426;SDS011;64007;50.632;13.700;2024-03-23T02:43:32;7.45;;;3.65;;
75426;SDS011;64007;50.632;13.700;2024-03-23T02:45:58;6.85;;;3.20;;
75426;SDS011;64007;50.632;13.700;2024-03-23T02:48:24;5.60;;;3.13;;
75426;SDS011;64007;50.632;13.700;2024-03-23T02:50:49;7.68;;;3.60;;
75426;SDS011;64007;50.632;13.700;2024-03-23T02:53:16;7.72;;;3.20;;
75426;SDS011;64007;50.632;13.700;2024-03-23T02:55:41;7.00;;;3.47;;
75426;SDS011;64007;50.632;13.700;2024-03-23T02:58:07;20.33;;;3.70;;
75426;SDS011;64007;50.632;13.700;2024-03-23T03:00:33;6.55;;;3.33;;
75426;SDS011;64007;50.632;13.700;2024-03-23T03:02:58;7.55;;;3.17;;
75426;SDS011;64007;50.632;13.700;2024-03-23T03:05:24;10.82;;;3.72;;
75426;SDS011;64007;50.632;13.700;2024-03-23T03:07:50;6.85;;;3.80;;
75426;SDS011;64007;50.632;13.700;2024-03-23T03:10:16;8.73;;;3.78;;
75426;SDS011;64007;50.632;13.700;2024-03-23T03:12:41;7.65;;;3.63;;
75426;SDS011;64007;50.632;13.700;2024-03-23T03:15:07;8.85;;;4.00;;
75426;SDS011;64007;50.632;13.700;2024-03-23T03:17:34;9.68;;;3.70;;
75426;SDS011;64007;50.632;13.700;2024-03-23T03:20:00;6.20;;;3.70;;
75426;SDS011;64007;50.632;13.700;2024-03-23T03:22:26;7.38;;;3.70;;
75426;SDS011;64007;50.632;13.700;2024-03-23T03:24:51;6.30;;;3.38;;
75426;SDS011;64007;50.632;13.700;2024-03-23T03:27:17;6.80;;;3.42;;
75426;SDS011;64007;50.632;13.700;2024-03-23T03:29:43;8.38;;;3.63;;
75426;SDS011;64007;50.632;13.700;2024-03-23T03:32:09;6.97;;;3.33;;
75426;SDS011;64007;50.632;13.700;2024-03-23T03:34:34;6.60;;;3.78;;
75426;SDS011;64007;50.632;13.700;2024-03-23T03:37:00;9.38;;;4.15;;
75426;SDS011;64007;50.632;13.700;2024-03-23T03:39:26;5.30;;;3.20;;
75426;SDS011;64007;50.632;13.700;2024-03-23T03:41:52;12.75;;;3.80;;
75426;SDS011;64007;50.632;13.700;2024-03-23T03:44:17;7.90;;;3.45;;
75426;SDS011;64007;50.632;13.700;2024-03-23T03:46:43;10.45;;;3.95;;
75426;SDS011;64007;50.632;13.700;2024-03-23T03:49:09;9.65;;;4.03;;
75426;SDS011;64007;50.632;13.700;2024-03-23T03:51:35;4.85;;;3.50;;
75426;SDS011;64007;50.632;13.700;2024-03-23T03:54:00;5.38;;;3.40;;
75426;SDS011;64007;50.632;13.700;2024-03-23T03:56:26;10.60;;;4.13;;
75426;SDS011;64007;50.632;13.700;2024-03-23T03:58:52;8.38;;;3.55;;
75426;SDS011;64007;50.632;13.700;2024-03-23T04:01:18;10.40;;;3.80;;
75426;SDS011;64007;50.632;13.700;2024-03-23T04:03:44;7.10;;;3.35;;
75426;SDS011;64007;50.632;13.700;2024-03-23T04:06:10;7.50;;;3.50;;
75426;SDS011;64007;50.632;13.700;2024-03-23T04:08:35;11.50;;;4.10;;
75426;SDS011;64007;50.632;13.700;2024-03-23T04:11:01;9.40;;;3.63;;
75426;SDS011;64007;50.632;13.700;2024-03-23T04:13:27;6.57;;;3.63;;
75426;SDS011;64007;50.632;13.700;2024-03-23T04:15:56;11.50;;;4.03;;
75426;SDS011;64007;50.632;13.700;2024-03-23T04:18:22;7.50;;;3.40;;
75426;SDS011;64007;50.632;13.700;2024-03-23T04:20:49;8.43;;;3.92;;
75426;SDS011;64007;50.632;13.700;2024-03-23T04:23:15;10.80;;;4.25;;
75426;SDS011;64007;50.632;13.700;2024-03-23T04:25:40;5.97;;;3.70;;
75426;SDS011;64007;50.632;13.700;2024-03-23T04:28:06;11.02;;;4.43;;
75426;SDS011;64007;50.632;13.700;2024-03-23T04:30:32;7.95;;;4.30;;
75426;SDS011;64007;50.632;13.700;2024-03-23T04:32:57;10.63;;;4.47;;
75426;SDS011;64007;50.632;13.700;2024-03-23T04:35:24;8.52;;;4.20;;
75426;SDS011;64007;50.632;13.700;2024-03-23T04:37:50;9.80;;;4.30;;
75426;SDS011;64007;50.632;13.700;2024-03-23T04:40:21;9.55;;;4.07;;
75426;SDS011;64007;50.632;13.700;2024-03-23T04:42:47;9.07;;;4.13;;
75426;SDS011;64007;50.632;13.700;2024-03-23T04:45:13;9.93;;;5.47;;
75426;SDS011;64007;50.632;13.700;2024-03-23T04:47:38;12.60;;;3.90;;
75426;SDS011;64007;50.632;13.700;2024-03-23T04:50:04;7.50;;;4.10;;
75426;SDS011;64007;50.632;13.700;2024-03-23T04:52:30;8.70;;;4.43;;
75426;SDS011;64007;50.632;13.700;2024-03-23T04:54:56;6.85;;;4.07;;
75426;SDS011;64007;50.632;13.700;2024-03-23T04:57:22;9.07;;;4.57;;
75426;SDS011;64007;50.632;13.700;2024-03-23T04:59:48;8.80;;;4.03;;
75426;SDS011;64007;50.632;13.700;2024-03-23T05:02:14;12.52;;;4.28;;
75426;SDS011;64007;50.632;13.700;2024-03-23T05:04:40;10.13;;;4.43;;
75426;SDS011;64007;50.632;13.700;2024-03-23T05:07:06;10.57;;;4.20;;
75426;SDS011;64007;50.632;13.700;2024-03-23T05:09:32;9.43;;;4.60;;
75426;SDS011;64007;50.632;13.700;2024-03-23T05:12:01;9.35;;;4.00;;
75426;SDS011;64007;50.632;13.700;2024-03-23T05:14:28;8.55;;;4.57;;
75426;SDS011;64007;50.632;13.700;2024-03-23T05:16:53;12.35;;;4.68;;
75426;SDS011;64007;50.632;13.700;2024-03-23T05:19:19;6.60;;;4.18;;
75426;SDS011;64007;50.632;13.700;2024-03-23T05:21:45;12.85;;;4.40;;
75426;SDS011;64007;50.632;13.700;2024-03-23T05:24:11;6.85;;;4.65;;
75426;SDS011;64007;50.632;13.700;2024-03-23T05:26:37;9.55;;;4.53;;
75426;SDS011;64007;50.632;13.700;2024-03-23T05:29:03;8.45;;;4.57;;
75426;SDS011;64007;50.632;13.700;2024-03-23T05:31:30;15.30;;;4.72;;
75426;SDS011;64007;50.632;13.700;2024-03-23T05:33:57;8.65;;;4.30;;
75426;SDS011;64007;50.632;13.700;2024-03-23T05:36:23;7.80;;;4.15;;
75426;SDS011;64007;50.632;13.700;2024-03-23T05:38:52;11.02;;;4.55;;
75426;SDS011;64007;50.632;13.700;2024-03-23T05:41:17;9.75;;;4.35;;
75426;SDS011;64007;50.632;13.700;2024-03-23T05:43:43;8.38;;;4.55;;
75426;SDS011;64007;50.632;13.700;2024-03-23T05:46:09;9.45;;;4.28;;
75426;SDS011;64007;50.632;13.700;2024-03-23T05:48:35;7.45;;;4.50;;
75426;SDS011;64007;50.632;13.700;2024-03-23T05:51:01;13.70;;;4.75;;
75426;SDS011;64007;50.632;13.700;2024-03-23T05:53:27;7.18;;;4.40;;
75426;SDS011;64007;50.632;13.700;2024-03-23T05:56:04;6.20;;;3.92;;
75426;SDS011;64007;50.632;13.700;2024-03-23T05:58:30;7.13;;;4.30;;
75426;SDS011;64007;50.632;13.700;2024-03-23T06:00:56;8.18;;;4.40;;
75426;SDS011;64007;50.632;13.700;2024-03-23T06:03:24;7.72;;;4.70;;
75426;SDS011;64007;50.632;13.700;2024-03-23T06:05:51;7.07;;;3.95;;
75426;SDS011;64007;50.632;13.700;2024-03-23T06:08:18;8.25;;;4.82;;
75426;SDS011;64007;50.632;13.700;2024-03-23T06:10:45;8.73;;;4.90;;
75426;SDS011;64007;50.632;13.700;2024-03-23T06:13:11;10.40;;;6.03;;
75426;SDS011;64007;50.632;13.700;2024-03-23T06:15:37;12.95;;;7.03;;
75426;SDS011;64007;50.632;13.700;2024-03-23T06:18:04;17.85;;;8.02;;
75426;SDS011;64007;50.632;13.700;2024-03-23T06:20:30;19.58;;;9.65;;
75426;SDS011;64007;50.632;13.700;2024-03-23T06:22:56;18.02;;;9.85;;
75426;SDS011;64007;50.632;13.700;2024-03-23T06:25:22;24.23;;;9.77;;
75426;SDS011;64007;50.632;13.700;2024-03-23T06:27:48;18.85;;;9.38;;
75426;SDS011;64007;50.632;13.700;2024-03-23T06:30:13;17.52;;;9.55;;
75426;SDS011;64007;50.632;13.700;2024-03-23T06:32:39;19.05;;;9.95;;
75426;SDS011;64007;50.632;13.700;2024-03-23T06:35:05;15.15;;;9.38;;
75426;SDS011;64007;50.632;13.700;2024-03-23T06:37:34;14.05;;;8.35;;
75426;SDS011;64007;50.632;13.700;2024-03-23T06:40:01;13.18;;;6.85;;
75426;SDS011;64007;50.632;13.700;2024-03-23T06:42:26;12.38;;;6.97;;
75426;SDS011;64007;50.632;13.700;2024-03-23T06:44:52;21.92;;;8.32;;
75426;SDS011;64007;50.632;13.700;2024-03-23T06:47:18;21.55;;;9.48;;
75426;SDS011;64007;50.632;13.700;2024-03-23T06:49:43;16.85;;;9.65;;
75426;SDS011;64007;50.632;13.700;2024-03-23T06:52:09;18.05;;;10.20;;
75426;SDS011;64007;50.632;13.700;2024-03-23T06:54:35;23.05;;;10.98;;
75426;SDS011;64007;50.632;13.700;2024-03-23T06:57:01;18.42;;;9.98;;
75426;SDS011;64007;50.632;13.700;2024-03-23T06:59:26;21.48;;;10.02;;
75426;SDS011;64007;50.632;13.700;2024-03-23T07:01:53;19.27;;;9.13;;
75426;SDS011;64007;50.632;13.700;2024-03-23T07:04:18;20.83;;;9.60;;
75426;SDS011;64007;50.632;13.700;2024-03-23T07:06:44;17.15;;;9.57;;
75426;SDS011;64007;50.632;13.700;2024-03-23T07:09:11;20.58;;;10.68;;
75426;SDS011;64007;50.632;13.700;2024-03-23T07:11:37;19.90;;;10.30;;
75426;SDS011;64007;50.632;13.700;2024-03-23T07:14:09;23.98;;;10.60;;
75426;SDS011;64007;50.632;13.700;2024-03-23T07:16:37;19.55;;;11.15;;
75426;SDS011;64007;50.632;13.700;2024-03-23T07:19:03;25.40;;;11.73;;
75426;SDS011;64007;50.632;13.700;2024-03-23T07:21:31;20.95;;;11.43;;
75426;SDS011;64007;50.632;13.700;2024-03-23T07:23:57;21.85;;;11.27;;
75426;SDS011;64007;50.632;13.700;2024-03-23T07:26:23;19.55;;;11.45;;
75426;SDS011;64007;50.632;13.700;2024-03-23T07:28:48;25.58;;;11.60;;
75426;SDS011;64007;50.632;13.700;2024-03-23T07:31:15;19.02;;;9.73;;
75426;SDS011;64007;50.632;13.700;2024-03-23T07:39:11;23.13;;;12.20;;
75426;SDS011;64007;50.632;13.700;2024-03-23T07:41:37;21.05;;;12.13;;
75426;SDS011;64007;50.632;13.700;2024-03-23T07:44:03;21.45;;;12.30;;
75426;SDS011;64007;50.632;13.700;2024-03-23T07:46:28;20.00;;;11.32;;
75426;SDS011;64007;50.632;13.700;2024-03-23T07:48:54;27.38;;;13.20;;
75426;SDS011;64007;50.632;13.700;2024-03-23T07:51:21;21.77;;;12.48;;
75426;SDS011;64007;50.632;13.700;2024-03-23T07:53:50;21.02;;;11.90;;
75426;SDS011;64007;50.632;13.700;2024-03-23T07:56:16;22.38;;;12.63;;
75426;SDS011;64007;50.632;13.700;2024-03-23T07:58:43;25.95;;;13.65;;
75426;SDS011;64007;50.632;13.700;2024-03-23T08:01:11;35.67;;;13.63;;
75426;SDS011;64007;50.632;13.700;2024-03-23T08:09:04;21.20;;;12.27;;
75426;SDS011;64007;50.632;13.700;2024-03-23T08:11:30;27.23;;;12.60;;
75426;SDS011;64007;50.632;13.700;2024-03-23T08:16:27;24.63;;;12.30;;
75426;SDS011;64007;50.632;13.700;2024-03-23T08:19:02;23.55;;;11.70;;
75426;SDS011;64007;50.632;13.700;2024-03-23T08:21:29;24.42;;;11.50;;
75426;SDS011;64007;50.632;13.700;2024-03-23T08:23:55;20.63;;;10.85;;
75426;SDS011;64007;50.632;13.700;2024-03-23T08:26:20;25.17;;;11.93;;
75426;SDS011;64007;50.632;13.700;2024-03-23T08:28:46;27.15;;;12.80;;
75426;SDS011;64007;50.632;13.700;2024-03-23T08:31:13;21.73;;;11.75;;
75426;SDS011;64007;50.632;13.700;2024-03-23T08:33:40;19.05;;;12.13;;
75426;SDS011;64007;50.632;13.700;2024-03-23T08:36:08;19.00;;;11.43;;
75426;SDS011;64007;50.632;13.700;2024-03-23T08:38:39;18.30;;;10.77;;
75426;SDS011;64007;50.632;13.700;2024-03-23T08:41:06;19.45;;;11.70;;
75426;SDS011;64007;50.632;13.700;2024-03-23T08:43:44;21.95;;;11.82;;
75426;SDS011;64007;50.632;13.700;2024-03-23T08:46:13;21.35;;;13.50;;
75426;SDS011;64007;50.632;13.700;2024-03-23T08:48:44;26.70;;;14.85;;
75426;SDS011;64007;50.632;13.700;2024-03-23T08:51:11;27.48;;;14.65;;
75426;SDS011;64007;50.632;13.700;2024-03-23T08:53:38;29.67;;;14.27;;
75426;SDS011;64007;50.632;13.700;2024-03-23T08:56:05;23.08;;;12.48;;
75426;SDS011;64007;50.632;13.700;2024-03-23T08:58:34;32.70;;;13.23;;
75426;SDS011;64007;50.632;13.700;2024-03-23T09:01:11;23.25;;;12.98;;
75426;SDS011;64007;50.632;13.700;2024-03-23T09:03:40;22.10;;;13.13;;
75426;SDS011;64007;50.632;13.700;2024-03-23T09:06:10;22.98;;;12.63;;
75426;SDS011;64007;50.632;13.700;2024-03-23T09:08:38;30.08;;;11.77;;
75426;SDS011;64007;50.632;13.700;2024-03-23T09:11:12;20.00;;;10.20;;
75426;SDS011;64007;50.632;13.700;2024-03-23T09:13:39;29.80;;;10.38;;
75426;SDS011;64007;50.632;13.700;2024-03-23T09:16:06;23.13;;;12.20;;
75426;SDS011;64007;50.632;13.700;2024-03-23T09:18:35;20.48;;;10.50;;
75426;SDS011;64007;50.632;13.700;2024-03-23T09:21:04;22.83;;;11.02;;
75426;SDS011;64007;50.632;13.700;2024-03-23T09:23:38;21.52;;;11.05;;
75426;SDS011;64007;50.632;13.700;2024-03-23T09:26:04;18.52;;;10.00;;
75426;SDS011;64007;50.632;13.700;2024-03-23T09:28:33;20.63;;;9.88;;
75426;SDS011;64007;50.632;13.700;2024-03-23T09:31:05;19.85;;;11.52;;
75426;SDS011;64007;50.632;13.700;2024-03-23T09:33:32;20.60;;;11.13;;
75426;SDS011;64007;50.632;13.700;2024-03-23T09:36:02;25.65;;;10.50;;
75426;SDS011;64007;50.632;13.700;2024-03-23T09:38:29;22.10;;;10.75;;
75426;SDS011;64007;50.632;13.700;2024-03-23T09:40:55;28.52;;;10.27;;
75426;SDS011;64007;50.632;13.700;2024-03-23T09:43:22;18.83;;;9.20;;
75426;SDS011;64007;50.632;13.700;2024-03-23T09:45:47;18.45;;;10.52;;
75426;SDS011;64007;50.632;13.700;2024-03-23T09:48:14;20.50;;;8.73;;
75426;SDS011;64007;50.632;13.700;2024-03-23T09:50:41;15.90;;;8.15;;
75426;SDS011;64007;50.632;13.700;2024-03-23T09:53:08;13.80;;;7.57;;
75426;SDS011;64007;50.632;13.700;2024-03-23T09:55:38;17.33;;;8.20;;
75426;SDS011;64007;50.632;13.700;2024-03-23T09:58:05;16.48;;;7.50;;
75426;SDS011;64007;50.632;13.700;2024-03-23T10:00:32;15.40;;;8.27;;
75426;SDS011;64007;50.632;13.700;2024-03-23T10:02:59;17.15;;;8.18;;
75426;SDS011;64007;50.632;13.700;2024-03-23T10:05:27;14.75;;;7.20;;
75426;SDS011;64007;50.632;13.700;2024-03-23T10:07:54;16.52;;;9.23;;
75426;SDS011;64007;50.632;13.700;2024-03-23T10:10:20;12.48;;;7.03;;
75426;SDS011;64007;50.632;13.700;2024-03-23T10:12:49;5.20;;;2.80;;
75426;SDS011;64007;50.632;13.700;2024-03-23T10:15:22;3.00;;;1.90;;
75426;SDS011;64007;50.632;13.700;2024-03-23T10:17:50;2.20;;;1.52;;
75426;SDS011;64007;50.632;13.700;2024-03-23T10:20:22;5.53;;;1.67;;
75426;SDS011;64007;50.632;13.700;2024-03-23T10:25:15;4.53;;;2.65;;
75426;SDS011;64007;50.632;13.700;2024-03-23T10:27:41;3.67;;;2.63;;
75426;SDS011;64007;50.632;13.700;2024-03-23T10:30:09;4.43;;;2.30;;
75426;SDS011;64007;50.632;13.700;2024-03-23T10:32:36;3.20;;;2.10;;
75426;SDS011;64007;50.632;13.700;2024-03-23T10:37:42;3.03;;;1.80;;
75426;SDS011;64007;50.632;13.700;2024-03-23T10:40:09;2.10;;;1.20;;
75426;SDS011;64007;50.632;13.700;2024-03-23T10:42:37;1.42;;;0.90;;
75426;SDS011;64007;50.632;13.700;2024-03-23T10:45:06;1.85;;;0.85;;
75426;SDS011;64007;50.632;13.700;2024-03-23T10:47:36;0.85;;;0.50;;
75426;SDS011;64007;50.632;13.700;2024-03-23T10:50:03;0.63;;;0.40;;
75426;SDS011;64007;50.632;13.700;2024-03-23T10:52:31;0.30;;;0.30;;
75426;SDS011;64007;50.632;13.700;2024-03-23T10:54:58;0.20;;;0.20;;
75426;SDS011;64007;50.632;13.700;2024-03-23T10:57:27;0.20;;;0.20;;
75426;SDS011;64007;50.632;13.700;2024-03-23T10:59:59;0.10;;;0.10;;
75426;SDS011;64007;50.632;13.700;2024-03-23T11:02:28;0.08;;;0.08;;
75426;SDS011;64007;50.632;13.700;2024-03-23T11:04:55;0.25;;;0.20;;
75426;SDS011;64007;50.632;13.700;2024-03-23T11:09:55;0.10;;;0.10;;
75426;SDS011;64007;50.632;13.700;2024-03-23T11:17:28;0.70;;;0.50;;
75426;SDS011;64007;50.632;13.700;2024-03-23T11:19:54;1.13;;;0.50;;
75426;SDS011;64007;50.632;13.700;2024-03-23T11:27:38;0.20;;;0.20;;
75426;SDS011;64007;50.632;13.700;2024-03-23T11:30:37;0.35;;;0.30;;
75426;SDS011;64007;50.632;13.700;2024-03-23T11:32:57;0.10;;;0.10;;
75426;SDS011;64007;50.632;13.700;2024-03-23T11:35:26;0.05;;;0.00;;
75426;SDS011;64007;50.632;13.700;2024-03-23T11:38:06;0.10;;;0.10;;
75426;SDS011;64007;50.632;13.700;2024-03-23T11:40:37;0.10;;;0.10;;
75426;SDS011;64007;50.632;13.700;2024-03-23T11:43:10;2.85;;;0.08;;
75426;SDS011;64007;50.632;13.700;2024-03-23T11:45:39;0.15;;;0.10;;
75426;SDS011;64007;50.632;13.700;2024-03-23T11:48:10;3.63;;;0.10;;
75426;SDS011;64007;50.632;13.700;2024-03-23T11:50:42;0.20;;;0.20;;
75426;SDS011;64007;50.632;13.700;2024-03-23T11:58:25;0.00;;;0.00;;
75426;SDS011;64007;50.632;13.700;2024-03-23T12:00:52;0.03;;;0.00;;
75426;SDS011;64007;50.632;13.700;2024-03-23T12:03:18;0.10;;;0.10;;
75426;SDS011;64007;50.632;13.700;2024-03-23T12:05:52;0.10;;;0.10;;
75426;SDS011;64007;50.632;13.700;2024-03-23T12:08:22;0.20;;;0.17;;
75426;SDS011;64007;50.632;13.700;2024-03-23T12:10:50;0.30;;;0.30;;
75426;SDS011;64007;50.632;13.700;2024-03-23T12:13:18;0.10;;;0.10;;
75426;SDS011;64007;50.632;13.700;2024-03-23T12:15:49;0.68;;;0.30;;
75426;SDS011;64007;50.632;13.700;2024-03-23T12:18:16;0.40;;;0.40;;
75426;SDS011;64007;50.632;13.700;2024-03-23T12:20:42;0.93;;;0.30;;
75426;SDS011;64007;50.632;13.700;2024-03-23T12:23:09;0.57;;;0.20;;
75426;SDS011;64007;50.632;13.700;2024-03-23T12:25:38;0.30;;;0.30;;
75426;SDS011;64007;50.632;13.700;2024-03-23T12:28:04;0.30;;;0.30;;
75426;SDS011;64007;50.632;13.700;2024-03-23T12:30:34;0.20;;;0.20;;
75426;SDS011;64007;50.632;13.700;2024-03-23T12:33:01;0.75;;;0.52;;
75426;SDS011;64007;50.632;13.700;2024-03-23T12:35:28;0.20;;;0.20;;
75426;SDS011;64007;50.632;13.700;2024-03-23T12:37:54;0.20;;;0.20;;
75426;SDS011;64007;50.632;13.700;2024-03-23T12:40:20;0.30;;;0.30;;
75426;SDS011;64007;50.632;13.700;2024-03-23T12:42:46;0.60;;;0.38;;
75426;SDS011;64007;50.632;13.700;2024-03-23T12:45:11;0.32;;;0.30;;
75426;SDS011;64007;50.632;13.700;2024-03-23T12:47:37;0.30;;;0.30;;
75426;SDS011;64007;50.632;13.700;2024-03-23T12:50:03;0.30;;;0.30;;
75426;SDS011;64007;50.632;13.700;2024-03-23T12:52:29;0.30;;;0.30;;
75426;SDS011;64007;50.632;13.700;2024-03-23T12:54:55;0.32;;;0.30;;
75426;SDS011;64007;50.632;13.700;2024-03-23T12:57:22;0.57;;;0.30;;
75426;SDS011;64007;50.632;13.700;2024-03-23T12:59:51;0.30;;;0.30;;
75426;SDS011;64007;50.632;13.700;2024-03-23T13:02:21;0.40;;;0.40;;
75426;SDS011;64007;50.632;13.700;2024-03-23T13:04:50;0.40;;;0.40;;
75426;SDS011;64007;50.632;13.700;2024-03-23T13:07:17;0.40;;;0.30;;
75426;SDS011;64007;50.632;13.700;2024-03-23T13:09:44;0.70;;;0.40;;
75426;SDS011;64007;50.632;13.700;2024-03-23T13:12:10;0.50;;;0.45;;
75426;SDS011;64007;50.632;13.700;2024-03-23T13:14:40;0.98;;;0.43;;
75426;SDS011;64007;50.632;13.700;2024-03-23T13:17:06;0.50;;;0.40;;
75426;SDS011;64007;50.632;13.700;2024-03-23T13:19:33;0.28;;;0.28;;
75426;SDS011;64007;50.632;13.700;2024-03-23T13:21:59;1.13;;;0.40;;
75426;SDS011;64007;50.632;13.700;2024-03-23T13:24:26;0.75;;;0.40;;
75426;SDS011;64007;50.632;13.700;2024-03-23T13:26:55;0.40;;;0.30;;
75426;SDS011;64007;50.632;13.700;2024-03-23T13:29:21;0.40;;;0.40;;
75426;SDS011;64007;50.632;13.700;2024-03-23T13:31:49;0.45;;;0.40;;
75426;SDS011;64007;50.632;13.700;2024-03-23T13:34:16;0.30;;;0.30;;
75426;SDS011;64007;50.632;13.700;2024-03-23T13:36:43;0.60;;;0.40;;
75426;SDS011;64007;50.632;13.700;2024-03-23T13:39:10;0.80;;;0.40;;
75426;SDS011;64007;50.632;13.700;2024-03-23T13:41:45;0.50;;;0.40;;
75426;SDS011;64007;50.632;13.700;2024-03-23T13:44:12;0.40;;;0.40;;
75426;SDS011;64007;50.632;13.700;2024-03-23T13:46:38;0.32;;;0.28;;
75426;SDS011;64007;50.632;13.700;2024-03-23T13:49:05;0.40;;;0.35;;
75426;SDS011;64007;50.632;13.700;2024-03-23T13:51:31;2.75;;;1.92;;
75426;SDS011;64007;50.632;13.700;2024-03-23T13:53:57;1.73;;;0.93;;
75426;SDS011;64007;50.632;13.700;2024-03-23T13:56:26;1.17;;;0.60;;
75426;SDS011;64007;50.632;13.700;2024-03-23T13:58:55;2.10;;;1.42;;
75426;SDS011;64007;50.632;13.700;2024-03-23T14:01:21;0.57;;;0.50;;
75426;SDS011;64007;50.632;13.700;2024-03-23T14:03:47;1.00;;;0.60;;
75426;SDS011;64007;50.632;13.700;2024-03-23T14:06:13;2.17;;;0.68;;
75426;SDS011;64007;50.632;13.700;2024-03-23T14:08:39;5.10;;;1.23;;
75426;SDS011;64007;50.632;13.700;2024-03-23T14:11:05;1.92;;;0.90;;
75426;SDS011;64007;50.632;13.700;2024-03-23T14:13:31;4.15;;;1.00;;
75426;SDS011;64007;50.632;13.700;2024-03-23T14:15:57;2.10;;;0.60;;
75426;SDS011;64007;50.632;13.700;2024-03-23T14:18:24;2.95;;;0.80;;
75426;SDS011;64007;50.632;13.700;2024-03-23T14:20:51;1.63;;;0.70;;
75426;SDS011;64007;50.632;13.700;2024-03-23T14:23:18;6.38;;;0.80;;
75426;SDS011;64007;50.632;13.700;2024-03-23T14:25:44;2.13;;;1.00;;
75426;SDS011;64007;50.632;13.700;2024-03-23T14:28:10;2.20;;;1.05;;
75426;SDS011;64007;50.632;13.700;2024-03-23T14:30:42;2.40;;;1.02;;
75426;SDS011;64007;50.632;13.700;2024-03-23T14:33:08;4.43;;;1.10;;
75426;SDS011;64007;50.632;13.700;2024-03-23T14:35:34;2.75;;;0.80;;
75426;SDS011;64007;50.632;13.700;2024-03-23T14:38:00;7.57;;;1.10;;
75426;SDS011;64007;50.632;13.700;2024-03-23T14:40:27;3.17;;;1.20;;
75426;SDS011;64007;50.632;13.700;2024-03-23T14:42:53;1.90;;;0.93;;
75426;SDS011;64007;50.632;13.700;2024-03-23T14:45:20;4.85;;;1.10;;
75426;SDS011;64007;50.632;13.700;2024-03-23T14:47:52;5.25;;;1.33;;
75426;SDS011;64007;50.632;13.700;2024-03-23T14:50:18;3.42;;;1.08;;
75426;SDS011;64007;50.632;13.700;2024-03-23T14:52:45;3.78;;;1.23;;
75426;SDS011;64007;50.632;13.700;2024-03-23T14:55:13;5.72;;;1.40;;
75426;SDS011;64007;50.632;13.700;2024-03-23T14:57:39;5.38;;;1.38;;
75426;SDS011;64007;50.632;13.700;2024-03-23T15:00:08;5.38;;;1.83;;
75426;SDS011;64007;50.632;13.700;2024-03-23T15:02:39;5.97;;;2.40;;
75426;SDS011;64007;50.632;13.700;2024-03-23T15:05:05;4.88;;;1.58;;
75426;SDS011;64007;50.632;13.700;2024-03-23T15:07:38;9.43;;;1.98;;
75426;SDS011;64007;50.632;13.700;2024-03-23T15:10:05;3.33;;;1.45;;
75426;SDS011;64007;50.632;13.700;2024-03-23T15:12:31;3.00;;;1.30;;
75426;SDS011;64007;50.632;13.700;2024-03-23T15:14:58;7.35;;;1.80;;
75426;SDS011;64007;50.632;13.700;2024-03-23T15:17:25;5.47;;;1.42;;
75426;SDS011;64007;50.632;13.700;2024-03-23T15:19:51;4.13;;;1.40;;
75426;SDS011;64007;50.632;13.700;2024-03-23T15:22:19;3.58;;;1.45;;
75426;SDS011;64007;50.632;13.700;2024-03-23T15:24:46;7.70;;;1.60;;
75426;SDS011;64007;50.632;13.700;2024-03-23T15:27:12;6.78;;;1.65;;
75426;SDS011;64007;50.632;13.700;2024-03-23T15:29:38;3.10;;;1.40;;
75426;SDS011;64007;50.632;13.700;2024-03-23T15:32:04;4.47;;;1.70;;
75426;SDS011;64007;50.632;13.700;2024-03-23T15:34:30;4.65;;;1.40;;
75426;SDS011;64007;50.632;13.700;2024-03-23T15:36:56;6.28;;;2.30;;
75426;SDS011;64007;50.632;13.700;2024-03-23T15:39:21;11.48;;;3.30;;
75426;SDS011;64007;50.632;13.700;2024-03-23T15:41:48;9.85;;;2.47;;
75426;SDS011;64007;50.632;13.700;2024-03-23T15:44:13;5.40;;;1.85;;
75426;SDS011;64007;50.632;13.700;2024-03-23T15:46:39;5.38;;;1.80;;
75426;SDS011;64007;50.632;13.700;2024-03-23T15:49:05;5.18;;;2.40;;
75426;SDS011;64007;50.632;13.700;2024-03-23T15:51:32;2.88;;;1.70;;
75426;SDS011;64007;50.632;13.700;2024-03-23T15:53:59;9.15;;;2.88;;
75426;SDS011;64007;50.632;13.700;2024-03-23T15:56:26;9.20;;;2.88;;